Time;durP1;ratioP1;P1;durP2;ratioP2;P2;SDS_P1;SDS_P2;PMS_P1;PMS_P2;Temp;Humidity;BMP_temperature;BMP_pressure;BME280_temperature;BME280_humidity;BME280_pressure;Samples;Min_cycle;Max_cycle;Signal;HPM_P1;HPM_P2
2023/05/17 00:02:02;;;;;;;6.90;6.60;;;10.60;99.90;;;;;;4987604;28;20523;-78
2023/05/17 00:04:30;;;;;;;7.43;6.83;;;10.60;99.90;;;;;;4991781;28;20849;-80
2023/05/17 00:06:58;;;;;;;6.70;6.40;;;10.50;99.90;;;;;;4987174;28;20990;-80
2023/05/17 00:09:27;;;;;;;7.53;7.23;;;10.60;99.90;;;;;;4983594;28;20561;-80
2023/05/17 00:11:55;;;;;;;6.67;6.57;;;10.60;99.90;;;;;;4986324;28;20456;-81
2023/05/17 00:14:23;;;;;;;7.13;6.80;;;10.60;99.90;;;;;;4986364;28;20869;-80
2023/05/17 00:16:53;;;;;;;7.60;7.20;;;10.50;99.90;;;;;;4981255;28;20481;-79
2023/05/17 00:19:21;;;;;;;7.47;7.17;;;10.50;99.90;;;;;;4982692;28;20837;-80
2023/05/17 00:21:50;;;;;;;6.83;6.73;;;10.40;99.90;;;;;;4982746;28;20468;-81
2023/05/17 00:24:18;;;;;;;6.93;6.73;;;10.40;99.90;;;;;;4985724;28;20485;-80
2023/05/17 00:26:46;;;;;;;7.33;7.10;;;10.40;99.90;;;;;;4984660;28;20479;-80
2023/05/17 00:29:14;;;;;;;7.60;7.33;;;10.40;99.90;;;;;;5003131;28;20462;-82
2023/05/17 00:31:42;;;;;;;7.77;7.37;;;10.30;99.90;;;;;;4985177;28;20454;-81
2023/05/17 00:34:12;;;;;;;7.37;7.07;;;10.30;99.90;;;;;;4987352;28;20909;-82
2023/05/17 00:36:40;;;;;;;7.33;7.23;;;10.30;99.90;;;;;;4988519;28;20482;-81
2023/05/17 00:39:08;;;;;;;7.67;7.30;;;10.30;99.90;;;;;;4988106;28;20840;-81
2023/05/17 00:41:36;;;;;;;8.20;7.83;;;10.30;99.90;;;;;;4988780;28;20505;-81
2023/05/17 00:44:05;;;;;;;7.70;7.30;;;10.30;99.90;;;;;;4988639;28;20453;-82
2023/05/17 00:46:33;;;;;;;7.50;7.20;;;10.20;99.90;;;;;;4979633;28;20478;-81
2023/05/17 00:49:02;;;;;;;7.60;7.30;;;10.30;99.90;;;;;;4988379;28;20868;-81
2023/05/17 00:51:32;;;;;;;7.77;7.47;;;10.30;99.90;;;;;;4991539;28;20527;-81
2023/05/17 00:54:00;;;;;;;7.10;6.80;;;10.20;99.90;;;;;;4988534;28;20459;-81
2023/05/17 00:56:35;;;;;;;7.50;7.10;;;10.20;99.90;;;;;;4990234;28;20485;-82
2023/05/17 00:59:08;;;;;;;7.37;7.10;;;10.20;99.90;;;;;;4987718;28;20487;-80
2023/05/17 01:01:52;;;;;;;7.27;7.07;;;10.10;99.90;;;;;;4989509;28;20483;-81
2023/05/17 01:04:21;;;;;;;8.57;7.73;;;10.10;99.90;;;;;;4986632;28;20463;-81
2023/05/17 01:07:30;;;;;;;8.03;7.70;;;10.20;99.90;;;;;;4988516;28;20488;-81
2023/05/17 01:10:08;;;;;;;7.70;7.30;;;10.10;99.90;;;;;;4987715;28;20488;-81
2023/05/17 01:12:55;;;;;;;7.50;7.30;;;10.10;99.90;;;;;;4986844;28;20454;-81
2023/05/17 01:15:45;;;;;;;8.03;7.70;;;10.10;99.90;;;;;;4986841;28;20507;-81
2023/05/17 01:18:25;;;;;;;7.40;7.20;;;10.10;99.90;;;;;;4988327;28;20578;-82
2023/05/17 01:20:58;;;;;;;7.67;7.27;;;10.10;99.90;;;;;;4985535;28;20891;-80
2023/05/17 01:23:42;;;;;;;7.20;7.00;;;10.10;99.90;;;;;;4988156;28;20486;-82
2023/05/17 01:26:16;;;;;;;7.80;7.50;;;10.10;99.90;;;;;;4983278;28;20843;-81
2023/05/17 01:28:51;;;;;;;8.03;7.50;;;10.10;99.90;;;;;;4986506;28;20450;-81
2023/05/17 01:31:20;;;;;;;7.63;7.43;;;10.10;99.90;;;;;;4986272;28;20460;-82
2023/05/17 01:33:49;;;;;;;7.70;7.50;;;10.10;99.90;;;;;;4986747;28;20466;-81
2023/05/17 01:36:19;;;;;;;7.73;7.40;;;10.10;99.90;;;;;;4986264;28;21292;-81
2023/05/17 01:38:59;;;;;;;7.83;7.53;;;10.00;99.90;;;;;;4987732;28;20482;-81
2023/05/17 01:42:02;;;;;;;8.67;8.10;;;10.00;99.90;;;;;;4988852;28;20471;-81
2023/05/17 01:45:00;;;;;;;8.00;7.70;;;10.10;99.90;;;;;;5000978;28;20460;-82
2023/05/17 01:47:53;;;;;;;7.73;7.57;;;10.10;99.90;;;;;;4988427;28;20465;-81
2023/05/17 01:50:38;;;;;;;8.03;7.83;;;10.00;99.90;;;;;;4990879;28;20464;-80
2023/05/17 01:53:31;;;;;;;8.53;8.13;;;10.00;99.90;;;;;;4988851;28;20830;-80
2023/05/17 01:56:10;;;;;;;7.83;7.63;;;10.00;99.90;;;;;;4986513;28;20496;-81
2023/05/17 01:58:52;;;;;;;7.80;7.60;;;10.00;99.90;;;;;;4990331;28;20515;-80
2023/05/17 02:01:47;;;;;;;7.80;7.53;;;9.90;99.90;;;;;;4986272;28;20818;-82
2023/05/17 02:04:42;;;;;;;8.27;7.93;;;9.90;99.90;;;;;;4985456;28;20467;-82
2023/05/17 02:07:36;;;;;;;8.20;7.93;;;9.90;99.90;;;;;;4986598;28;20484;-81
2023/05/17 02:10:54;;;;;;;7.93;7.63;;;9.80;99.90;;;;;;4969023;28;20550;-82
2023/05/17 02:13:48;;;;;;;8.10;7.63;;;9.80;99.90;;;;;;4970155;28;20551;-82
2023/05/17 02:16:35;;;;;;;8.67;8.07;;;9.70;99.90;;;;;;4987742;28;20947;-82
2023/05/17 02:19:53;;;;;;;8.20;7.80;;;9.70;99.90;;;;;;4989974;28;20478;-83
2023/05/17 02:22:36;;;;;;;7.63;7.50;;;9.70;99.90;;;;;;4986817;28;20469;-81
2023/05/17 02:25:21;;;;;;;8.20;7.80;;;9.80;99.90;;;;;;4991066;28;20454;-81
2023/05/17 02:28:38;;;;;;;8.33;7.93;;;9.60;99.90;;;;;;4989249;28;20478;-80
2023/05/17 02:34:45;;;;;;;8.60;7.90;;;9.60;99.90;;;;;;4990217;28;20457;-81
2023/05/17 02:37:15;;;;;;;8.67;8.27;;;9.70;99.90;;;;;;4986569;28;20586;-82
2023/05/17 02:39:49;;;;;;;8.00;7.80;;;9.60;99.90;;;;;;5002436;28;20948;-81
2023/05/17 02:42:17;;;;;;;8.17;7.97;;;9.60;99.90;;;;;;4987569;28;20963;-82
2023/05/17 02:44:47;;;;;;;8.13;7.87;;;9.60;99.90;;;;;;4985863;28;20468;-81
2023/05/17 02:47:19;;;;;;;8.20;7.80;;;9.50;99.90;;;;;;4984439;28;21072;-82
2023/05/17 02:50:01;;;;;;;9.37;8.97;;;9.60;99.90;;;;;;4986395;28;20452;-80
2023/05/17 02:52:45;;;;;;;9.10;8.70;;;9.60;99.90;;;;;;4990803;28;20458;-81
2023/05/17 02:55:23;;;;;;;9.63;8.37;;;9.70;99.90;;;;;;4988561;28;20546;-80
2023/05/17 02:58:11;;;;;;;8.83;8.53;;;9.70;99.90;;;;;;5006262;28;20546;-80
2023/05/17 03:00:49;;;;;;;8.93;8.33;;;9.70;99.90;;;;;;4988904;28;20495;-81
2023/05/17 03:03:35;;;;;;;9.40;8.90;;;9.50;99.90;;;;;;4989513;28;20468;-82
2023/05/17 03:06:15;;;;;;;8.90;8.60;;;9.50;99.90;;;;;;5000582;28;20546;-80
2023/05/17 03:09:03;;;;;;;9.30;8.80;;;9.50;99.90;;;;;;4986429;28;20458;-80
2023/05/17 03:11:48;;;;;;;8.77;8.30;;;9.50;99.90;;;;;;4991246;28;20464;-81
2023/05/17 03:14:33;;;;;;;8.30;8.10;;;9.60;99.90;;;;;;5008279;28;20460;-81
2023/05/17 03:17:46;;;;;;;8.20;7.90;;;9.50;99.90;;;;;;4991391;28;21064;-81
2023/05/17 03:20:41;;;;;;;8.10;7.90;;;9.50;99.90;;;;;;4991048;28;20458;-81
2023/05/17 03:23:44;;;;;;;8.90;8.60;;;9.50;99.90;;;;;;4989603;28;20474;-79
2023/05/17 03:26:15;;;;;;;8.40;8.07;;;9.50;99.90;;;;;;4987402;28;20531;-82
2023/05/17 03:29:07;;;;;;;8.50;8.20;;;9.40;99.90;;;;;;4988514;28;20544;-81
2023/05/17 03:35:05;;;;;;;8.57;8.37;;;9.40;99.90;;;;;;4980307;28;20491;-82
2023/05/17 03:37:51;;;;;;;8.40;8.20;;;9.30;99.90;;;;;;4985168;28;20465;-80
2023/05/17 03:41:09;;;;;;;8.90;8.50;;;9.30;99.90;;;;;;4986447;28;20457;-80
2023/05/17 03:43:55;;;;;;;9.73;9.23;;;9.40;99.90;;;;;;4984605;28;20834;-80
2023/05/17 03:52:46;;;;;;;8.20;8.00;;;9.40;99.90;;;;;;4984507;28;20481;-81
2023/05/17 03:55:47;;;;;;;9.30;8.90;;;9.30;99.90;;;;;;5004348;28;20473;-81
2023/05/17 03:58:48;;;;;;;;;;;;;;;;;;;;;
2023/05/17 04:01:31;;;;;;;9.60;9.20;;;9.30;99.90;;;;;;4981240;28;20461;-82
2023/05/17 04:04:10;;;;;;;10.40;9.80;;;9.30;99.90;;;;;;4988411;28;20962;-82
2023/05/17 04:13:50;;;;;;;9.70;9.00;;;9.40;99.90;;;;;;4984679;28;20467;-81
2023/05/17 04:20:39;;;;;;;9.27;8.77;;;9.30;99.90;;;;;;4978931;28;20903;-81
2023/05/17 04:24:01;;;;;;;9.37;8.87;;;9.20;99.90;;;;;;4891899;29;20516;-81
2023/05/17 04:26:50;;;;;;;9.60;8.90;;;9.20;99.90;;;;;;4865520;29;20504;-76
2023/05/17 04:29:50;;;;;;;9.70;9.23;;;9.30;99.90;;;;;;4945161;28;20497;-82
2023/05/17 04:39:28;;;;;;;9.60;9.30;;;9.20;99.90;;;;;;4988764;28;21065;-80
2023/05/17 04:45:49;;;;;;;9.97;9.67;;;9.20;99.90;;;;;;4982486;28;20493;-79
2023/05/17 04:52:12;;;;;;;10.40;10.00;;;9.30;99.90;;;;;;4961049;28;20474;-79
2023/05/17 04:58:23;;;;;;;11.13;10.67;;;9.20;99.90;;;;;;4978577;28;20476;-80
2023/05/17 05:01:19;;;;;;;10.80;10.30;;;9.30;99.90;;;;;;4977350;28;20479;-80
2023/05/17 05:04:24;;;;;;;11.60;11.20;;;9.30;99.90;;;;;;4984627;28;20465;-80
2023/05/17 05:06:52;;;;;;;10.50;10.30;;;9.30;99.90;;;;;;4983281;28;20485;-81
2023/05/17 05:09:30;;;;;;;;;;;;;;;;;;;;;
2023/05/17 05:12:18;;;;;;;10.83;10.53;;;9.40;99.90;;;;;;4980368;28;20463;-80
2023/05/17 05:15:35;;;;;;;11.23;10.70;;;9.40;99.90;;;;;;4975188;28;20516;-80
2023/05/17 05:18:23;;;;;;;10.90;10.50;;;9.40;99.90;;;;;;4981455;28;20479;-80
2023/05/17 05:21:29;;;;;;;11.40;11.10;;;9.40;99.90;;;;;;4982556;28;20469;-82
2023/05/17 05:24:15;;;;;;;10.73;10.30;;;9.50;99.90;;;;;;4984910;28;20461;-81
2023/05/17 05:30:05;;;;;;;11.10;10.60;;;9.50;99.90;;;;;;4981401;28;20448;-82
2023/05/17 05:34:17;;;;;;;11.50;10.90;;;9.40;99.90;;;;;;4960941;28;20466;-82
2023/05/17 05:53:26;;;;;;;11.27;10.87;;;9.80;99.90;;;;;;4991075;28;20552;-81
2023/05/17 05:59:41;;;;;;;11.10;10.80;;;10.10;99.90;;;;;;4984562;28;20465;-82
2023/05/17 06:03:13;;;;;;;11.77;11.27;;;10.20;99.90;;;;;;4984213;28;20469;-82
2023/05/17 06:12:19;;;;;;;11.50;11.10;;;10.40;99.90;;;;;;4988950;28;20210;-81
2023/05/17 06:15:14;;;;;;;12.37;11.97;;;10.70;99.90;;;;;;4942686;28;20579;-81
2023/05/17 06:17:56;;;;;;;11.97;11.57;;;10.70;99.90;;;;;;4988295;28;20468;-81
2023/05/17 06:21:04;;;;;;;12.23;11.63;;;10.80;99.90;;;;;;4977532;28;20788;-81
2023/05/17 06:24:12;;;;;;;11.70;11.10;;;11.00;99.90;;;;;;4979465;28;20839;-82
2023/05/17 06:27:22;;;;;;;11.90;11.30;;;11.00;99.90;;;;;;4986276;28;20479;-81
2023/05/17 06:31:05;;;;;;;11.83;11.10;;;11.10;99.90;;;;;;4974762;28;20472;-82
2023/05/17 06:33:56;;;;;;;12.43;11.80;;;11.30;99.90;;;;;;4993024;28;20465;-82
2023/05/17 06:43:18;;;;;;;12.37;11.47;;;12.10;99.90;;;;;;5001482;28;20465;-80
2023/05/17 06:46:06;;;;;;;12.80;12.10;;;12.10;99.90;;;;;;4990765;28;20497;-84
2023/05/17 06:49:21;;;;;;;12.67;12.27;;;12.20;99.90;;;;;;4992192;28;20493;-82
2023/05/17 06:52:26;;;;;;;12.43;11.90;;;12.10;99.90;;;;;;4992035;28;20442;-82
2023/05/17 06:58:44;;;;;;;12.70;12.10;;;12.20;99.90;;;;;;5006006;28;20455;-82
2023/05/17 07:01:31;;;;;;;13.50;12.70;;;12.30;99.90;;;;;;4987305;28;20470;-82
2023/05/17 07:04:18;;;;;;;12.50;12.07;;;12.20;99.90;;;;;;4986897;28;20480;-83
2023/05/17 07:07:07;;;;;;;13.37;12.63;;;12.30;99.90;;;;;;4989318;28;21130;-82
2023/05/17 07:10:00;;;;;;;12.57;12.07;;;12.30;99.90;;;;;;4991453;28;20553;-82
2023/05/17 07:13:27;;;;;;;12.80;12.40;;;12.20;99.90;;;;;;4990404;28;20482;-82
2023/05/17 07:23:32;;;;;;;13.17;12.67;;;12.40;99.90;;;;;;4988939;28;20472;-82
2023/05/17 07:29:46;;;;;;;14.03;13.33;;;12.30;99.90;;;;;;4990022;28;20476;-81
2023/05/17 07:32:40;;;;;;;13.93;13.20;;;12.50;99.90;;;;;;4987982;28;20462;-82
2023/05/17 07:35:25;;;;;;;14.20;13.60;;;12.60;99.90;;;;;;4999287;28;20575;-81
2023/05/17 07:38:38;;;;;;;13.37;12.90;;;12.80;99.90;;;;;;4977380;28;20514;-81
2023/05/17 07:45:07;;;;;;;14.50;13.80;;;12.90;99.90;;;;;;4983891;28;20458;-82
2023/05/17 07:48:25;;;;;;;14.73;14.13;;;12.80;99.90;;;;;;4989564;28;20565;-81
2023/05/17 07:52:11;;;;;;;14.70;14.00;;;12.90;99.90;;;;;;4994682;28;20447;-82
2023/05/17 07:55:22;;;;;;;15.47;14.47;;;12.90;99.90;;;;;;4885810;29;20462;-82
2023/05/17 07:58:15;;;;;;;15.07;13.97;;;13.00;99.90;;;;;;4911258;29;20504;-82
2023/05/17 08:06:51;;;;;;;15.33;14.63;;;13.30;99.90;;;;;;4987496;28;20489;-83
2023/05/17 08:09:59;;;;;;;14.50;13.90;;;13.30;99.90;;;;;;4991957;28;20967;-82
2023/05/17 08:13:08;;;;;;;15.80;14.90;;;13.30;99.90;;;;;;4988607;28;20462;-81
2023/05/17 08:26:07;;;;;;;15.10;14.60;;;13.60;99.90;;;;;;5002042;28;21023;-82
2023/05/17 08:29:24;;;;;;;15.27;14.57;;;13.70;99.90;;;;;;4984831;28;20468;-83
2023/05/17 08:35:45;;;;;;;16.87;15.43;;;13.80;99.90;;;;;;4988298;28;20484;-82
2023/05/17 08:39:07;;;;;;;15.00;14.30;;;13.80;99.90;;;;;;4987712;28;20897;-83
2023/05/17 08:51:50;;;;;;;15.33;14.53;;;14.00;99.90;;;;;;4989935;28;20463;-82
2023/05/17 08:55:00;;;;;;;14.73;14.13;;;14.00;99.90;;;;;;5003539;28;21005;-82
2023/05/17 09:00:56;;;;;;;15.30;14.63;;;14.10;99.90;;;;;;4985235;28;20553;-82
2023/05/17 09:07:10;;;;;;;14.70;14.10;;;14.10;99.90;;;;;;4987155;28;20476;-82
2023/05/17 09:13:24;;;;;;;15.73;14.73;;;14.20;99.90;;;;;;4984618;28;20475;-82
2023/05/17 09:15:57;;;;;;;15.03;14.23;;;14.30;99.90;;;;;;4986386;28;20478;-79
2023/05/17 09:18:36;;;;;;;15.23;14.20;;;14.40;99.90;;;;;;4980476;28;20825;-79
2023/05/17 09:21:05;;;;;;;15.23;14.63;;;14.40;99.90;;;;;;4985244;28;20479;-82
2023/05/17 09:23:34;;;;;;;15.60;15.00;;;14.50;99.90;;;;;;4984513;28;20460;-81
2023/05/17 09:26:06;;;;;;;14.90;14.10;;;14.60;99.90;;;;;;4982265;28;21024;-81
2023/05/17 09:28:40;;;;;;;14.87;14.07;;;14.60;99.90;;;;;;4974934;28;20464;-81
2023/05/17 09:31:23;;;;;;;15.37;14.70;;;14.60;99.90;;;;;;4997076;28;20550;-84
2023/05/17 09:34:55;;;;;;;15.97;14.77;;;14.70;99.90;;;;;;4989188;28;20477;-81
2023/05/17 09:45:23;;;;;;;14.17;13.30;;;14.90;99.90;;;;;;5999174;23;20424;-84
2023/05/17 09:47:54;;;;;;;14.70;13.90;;;14.80;99.90;;;;;;4965562;28;20457;-83
2023/05/17 09:50:22;;;;;;;14.97;14.03;;;14.60;99.90;;;;;;4955626;28;20607;-82
2023/05/17 09:52:56;;;;;;;13.30;12.80;;;14.70;99.90;;;;;;4971258;28;20442;-82
2023/05/17 09:55:27;;;;;;;12.60;12.20;;;14.80;99.90;;;;;;4963159;28;20518;-82
2023/05/17 09:58:03;;;;;;;14.17;13.50;;;14.90;99.90;;;;;;4960160;28;20935;-83
2023/05/17 10:00:34;;;;;;;16.00;15.00;;;15.00;99.90;;;;;;4961541;28;20525;-82
2023/05/17 10:03:05;;;;;;;24.27;19.23;;;15.00;99.90;;;;;;4960947;28;20566;-81
2023/05/17 10:05:34;;;;;;;14.57;13.70;;;15.10;99.90;;;;;;4959873;28;20545;-83
2023/05/17 10:08:05;;;;;;;14.00;13.33;;;15.00;99.90;;;;;;4961116;28;20886;-78
2023/05/17 10:10:33;;;;;;;15.37;14.33;;;15.10;99.90;;;;;;4958480;28;20454;-80
2023/05/17 10:13:04;;;;;;;14.23;13.63;;;15.20;99.90;;;;;;4954733;28;20472;-81
2023/05/17 10:15:37;;;;;;;20.50;15.10;;;15.30;99.90;;;;;;4943019;28;20495;-81
2023/05/17 10:18:09;;;;;;;18.63;17.03;;;15.30;99.90;;;;;;4950087;28;20467;-81
2023/05/17 10:20:44;;;;;;;13.47;12.97;;;15.20;99.90;;;;;;4956764;28;20468;-80
2023/05/17 10:23:17;;;;;;;16.77;15.67;;;15.20;99.90;;;;;;4959791;28;20535;-82
2023/05/17 10:25:49;;;;;;;13.70;13.00;;;15.30;99.90;;;;;;4956668;28;20480;-80
2023/05/17 10:28:19;;;;;;;13.90;13.20;;;15.20;99.90;;;;;;4958548;28;20562;-80
2023/05/17 10:30:53;;;;;;;12.90;12.30;;;15.30;99.90;;;;;;4957343;28;20617;-82
2023/05/17 10:33:23;;;;;;;12.60;12.17;;;15.20;99.90;;;;;;4956642;28;20532;-81
2023/05/17 10:35:54;;;;;;;13.77;13.13;;;15.20;99.90;;;;;;4951033;28;20493;-80
2023/05/17 10:38:27;;;;;;;13.10;12.60;;;15.20;99.90;;;;;;4956607;28;20476;-82
2023/05/17 10:41:09;;;;;;;13.87;12.93;;;15.30;99.90;;;;;;4959262;28;20473;-81
2023/05/17 10:43:43;;;;;;;12.57;12.07;;;15.20;99.90;;;;;;4961516;28;20566;-81
2023/05/17 10:46:48;;;;;;;13.60;12.83;;;15.30;99.90;;;;;;4957742;28;20570;-81
2023/05/17 10:49:46;;;;;;;12.60;12.13;;;15.30;99.90;;;;;;4957598;28;20455;-82
2023/05/17 10:52:17;;;;;;;13.60;12.80;;;15.20;99.90;;;;;;4960062;28;20465;-80
2023/05/17 10:54:49;;;;;;;13.50;12.80;;;15.20;99.90;;;;;;4955560;28;20456;-81
2023/05/17 10:57:21;;;;;;;13.33;12.73;;;15.20;99.90;;;;;;4957060;28;20483;-81
2023/05/17 11:00:02;;;;;;;14.57;13.30;;;15.20;99.90;;;;;;4956295;28;20470;-79
2023/05/17 11:02:32;;;;;;;13.40;12.53;;;15.20;99.90;;;;;;4957545;28;20583;-80
2023/05/17 11:05:01;;;;;;;12.33;11.93;;;15.20;99.90;;;;;;4958182;28;20487;-79
2023/05/17 11:07:32;;;;;;;13.50;12.80;;;15.30;99.90;;;;;;4957772;28;20504;-79
2023/05/17 11:10:09;;;;;;;12.20;11.53;;;15.50;99.90;;;;;;4960187;28;20463;-81
2023/05/17 11:12:54;;;;;;;12.60;12.00;;;15.50;99.90;;;;;;4967129;28;20463;-84
2023/05/17 11:19:46;;;;;;;13.37;12.53;;;15.50;99.90;;;;;;4991686;28;20542;-80
2023/05/17 11:23:08;;;;;;;19.07;17.30;;;15.40;99.90;;;;;;5004561;28;20478;-81
2023/05/17 11:25:39;;;;;;;12.83;12.00;;;15.40;99.90;;;;;;5001014;28;21074;-82
2023/05/17 11:28:09;;;;;;;12.07;11.57;;;15.30;99.90;;;;;;5001481;28;20467;-81
2023/05/17 11:30:46;;;;;;;11.97;11.47;;;15.30;99.90;;;;;;5001694;28;20554;-81
2023/05/17 11:33:15;;;;;;;10.97;10.50;;;15.30;99.90;;;;;;4998634;28;20513;-82
2023/05/17 11:36:05;;;;;;;12.33;11.73;;;15.30;99.90;;;;;;4997306;28;21372;-82
2023/05/17 11:38:34;;;;;;;11.83;11.17;;;15.30;99.90;;;;;;4993655;28;20538;-80
2023/05/17 11:41:20;;;;;;;12.90;12.00;;;15.40;99.90;;;;;;5001734;28;20565;-82
2023/05/17 11:43:52;;;;;;;12.30;11.50;;;15.40;99.90;;;;;;5002652;28;20476;-81
2023/05/17 11:46:21;;;;;;;11.97;11.47;;;15.40;99.90;;;;;;5004312;28;20560;-81
2023/05/17 11:48:53;;;;;;;11.00;10.57;;;15.40;99.90;;;;;;5001247;28;20449;-82
2023/05/17 11:51:22;;;;;;;11.77;11.30;;;15.30;99.90;;;;;;5005483;28;20993;-80
2023/05/17 11:53:54;;;;;;;12.13;11.33;;;15.30;99.90;;;;;;4999447;28;20449;-80
2023/05/17 11:56:26;;;;;;;11.40;11.00;;;15.20;99.90;;;;;;5003159;28;20859;-81
2023/05/17 11:59:10;;;;;;;11.43;11.03;;;15.20;99.90;;;;;;5005136;28;20933;-82
2023/05/17 12:01:45;;;;;;;12.00;11.50;;;15.20;99.90;;;;;;5005841;28;20619;-82
2023/05/17 12:04:14;;;;;;;11.70;11.00;;;15.20;99.90;;;;;;4988155;28;20783;-82
2023/05/17 12:06:44;;;;;;;12.70;11.90;;;15.20;99.90;;;;;;5006435;28;20473;-81
2023/05/17 12:09:16;;;;;;;12.27;11.50;;;15.20;99.90;;;;;;5007656;28;20557;-80
2023/05/17 12:11:46;;;;;;;13.83;12.67;;;15.20;99.90;;;;;;5004262;28;21061;-81
2023/05/17 12:14:17;;;;;;;12.03;11.33;;;15.20;99.90;;;;;;5006443;28;20456;-81
2023/05/17 12:16:51;;;;;;;10.83;10.40;;;15.20;99.90;;;;;;5006408;28;20482;-82
2023/05/17 12:19:21;;;;;;;11.77;11.00;;;15.20;99.90;;;;;;5003369;28;21168;-81
2023/05/17 12:21:50;;;;;;;12.13;11.43;;;15.10;99.90;;;;;;5005143;28;20510;-82
2023/05/17 12:24:20;;;;;;;11.13;10.50;;;15.00;99.90;;;;;;4997326;28;21008;-83
2023/05/17 12:30:27;;;;;;;11.03;10.57;;;15.00;99.90;;;;;;4983052;28;20510;-83
2023/05/17 12:36:56;;;;;;;;;;;;;;;;;;;;;
2023/05/17 12:46:27;;;;;;;11.20;10.40;;;15.10;99.90;;;;;;4996370;28;20996;-83
2023/05/17 12:49:39;;;;;;;11.00;10.60;;;15.30;99.90;;;;;;4992220;28;20457;-81
2023/05/17 12:52:36;;;;;;;10.77;10.37;;;15.30;99.90;;;;;;4993336;28;20465;-81
2023/05/17 12:55:48;;;;;;;11.33;10.43;;;15.50;99.90;;;;;;4978090;28;20556;-84
2023/05/17 12:59:13;;;;;;;11.13;10.10;;;15.50;99.90;;;;;;4993863;28;20480;-81
2023/05/17 13:05:53;;;;;;;10.80;10.20;;;15.50;99.90;;;;;;4976689;28;20452;-82
2023/05/17 13:09:06;;;;;;;10.50;9.90;;;15.40;99.90;;;;;;4987325;28;20461;-84
2023/05/17 13:11:54;;;;;;;10.43;9.93;;;15.30;99.90;;;;;;4987646;28;20461;-84
2023/05/17 13:14:58;;;;;;;11.00;10.50;;;15.10;99.90;;;;;;4998889;28;20985;-82
2023/05/17 13:17:43;;;;;;;11.30;10.60;;;15.00;99.90;;;;;;5000728;28;20562;-83
2023/05/17 13:20:30;;;;;;;11.03;10.43;;;15.10;99.90;;;;;;4986866;28;20528;-83
2023/05/17 13:23:40;;;;;;;10.57;10.17;;;15.10;99.90;;;;;;4996553;28;20480;-81
2023/05/17 13:26:18;;;;;;;11.37;10.73;;;15.20;99.90;;;;;;4996300;28;20485;-84
2023/05/17 13:35:37;;;;;;;11.73;10.83;;;15.20;99.90;;;;;;4923247;29;20481;-84
2023/05/17 13:38:10;;;;;;;10.53;10.10;;;15.20;99.90;;;;;;4924558;29;20483;-83
2023/05/17 13:41:08;;;;;;;10.70;10.30;;;15.30;99.90;;;;;;4991027;28;20473;-83
2023/05/17 13:44:04;;;;;;;10.30;9.83;;;15.20;99.90;;;;;;4998739;28;21046;-85
2023/05/17 13:46:42;;;;;;;10.93;10.40;;;15.30;99.90;;;;;;4998913;28;20501;-83
2023/05/17 13:49:48;;;;;;;10.70;10.20;;;15.30;99.90;;;;;;5000134;28;20461;-83
2023/05/17 13:52:31;;;;;;;11.00;10.43;;;15.30;99.90;;;;;;4980343;28;20466;-84
2023/05/17 13:55:23;;;;;;;12.40;11.60;;;15.30;99.90;;;;;;4996971;28;20557;-84
2023/05/17 14:01:28;;;;;;;11.20;10.40;;;15.20;99.90;;;;;;4996570;28;20470;-84
2023/05/17 14:05:08;;;;;;;11.73;11.07;;;15.20;99.90;;;;;;4923016;29;21179;-83
2023/05/17 14:15:15;;;;;;;12.67;11.97;;;15.00;99.90;;;;;;4930023;29;20498;-84
2023/05/17 14:24:59;;;;;;;11.67;11.27;;;14.90;99.90;;;;;;4941461;29;20859;-83
2023/05/17 14:28:37;;;;;;;13.00;12.20;;;14.80;99.90;;;;;;4945094;29;21210;-83
2023/05/17 14:35:24;;;;;;;11.73;11.13;;;14.80;99.90;;;;;;4932154;29;20459;-83
2023/05/17 14:38:23;;;;;;;;;;;;;;;;;;;;;
2023/05/17 14:41:25;;;;;;;12.73;12.10;;;14.80;99.90;;;;;;4959003;28;20463;-83
2023/05/17 14:45:10;;;;;;;13.10;12.27;;;14.80;99.90;;;;;;5002390;28;20476;-83
2023/05/17 14:49:07;;;;;;;13.10;12.40;;;14.70;99.90;;;;;;4992787;28;20466;-84
2023/05/17 14:52:28;;;;;;;11.90;11.30;;;14.70;99.90;;;;;;4999978;28;20996;-83
2023/05/17 14:56:17;;;;;;;12.73;12.00;;;14.60;99.90;;;;;;5002195;28;20552;-83
2023/05/17 14:59:49;;;;;;;;;;;;;;;;;;;;;
2023/05/17 15:02:35;;;;;;;13.03;12.43;;;14.70;99.90;;;;;;4995515;28;20552;-84
2023/05/17 15:05:36;;;;;;;13.20;12.40;;;14.60;99.90;;;;;;4999866;28;20482;-83
2023/05/17 15:08:39;;;;;;;11.97;11.47;;;14.60;99.90;;;;;;5002850;28;20504;-84
2023/05/17 15:11:36;;;;;;;12.47;11.77;;;14.60;99.90;;;;;;5002016;28;20602;-83
2023/05/17 15:14:56;;;;;;;12.30;11.60;;;14.50;99.90;;;;;;4997938;28;20461;-83
2023/05/17 15:17:45;;;;;;;12.53;11.70;;;14.50;99.90;;;;;;4998774;28;20473;-83
2023/05/17 15:20:41;;;;;;;11.80;11.30;;;14.50;99.90;;;;;;5001677;28;20460;-82
2023/05/17 15:23:17;;;;;;;14.23;13.13;;;14.50;99.90;;;;;;5002386;28;20853;-84
2023/05/17 15:25:46;;;;;;;13.67;12.27;;;14.50;99.90;;;;;;4994162;28;20485;-82
2023/05/17 15:28:18;;;;;;;37.13;16.57;;;14.40;99.90;;;;;;4997217;28;20465;-82
2023/05/17 15:30:47;;;;;;;13.37;12.20;;;14.40;99.90;;;;;;4995322;28;20449;-83
2023/05/17 15:33:15;;;;;;;12.47;11.80;;;14.40;99.90;;;;;;4995894;28;20453;-84
2023/05/17 15:35:45;;;;;;;11.90;11.20;;;14.40;99.90;;;;;;4988848;28;20484;-81
2023/05/17 15:38:13;;;;;;;12.87;12.27;;;14.40;99.90;;;;;;4992465;28;20486;-83
2023/05/17 15:40:42;;;;;;;11.80;11.30;;;14.40;99.90;;;;;;4997916;28;21064;-83
2023/05/17 15:43:10;;;;;;;13.80;12.67;;;14.40;99.90;;;;;;4977982;28;20464;-81
2023/05/17 15:45:55;;;;;;;14.50;13.53;;;14.40;99.90;;;;;;4995968;28;20488;-82
2023/05/17 15:48:40;;;;;;;12.93;12.33;;;14.40;99.90;;;;;;4991012;28;20458;-83
2023/05/17 15:51:14;;;;;;;12.27;11.50;;;14.30;99.90;;;;;;4994325;28;20960;-81
2023/05/17 15:53:42;;;;;;;12.73;12.13;;;14.30;99.90;;;;;;4993553;28;20838;-84
2023/05/17 15:56:11;;;;;;;12.47;12.00;;;14.30;99.90;;;;;;4997303;28;20481;-81
2023/05/17 15:58:40;;;;;;;13.20;12.50;;;14.30;99.90;;;;;;4989818;28;21020;-82
2023/05/17 16:01:10;;;;;;;12.37;11.77;;;14.30;99.90;;;;;;4984775;28;20500;-79
2023/05/17 16:04:02;;;;;;;12.90;12.07;;;14.20;99.90;;;;;;4996187;28;21053;-82
2023/05/17 16:06:40;;;;;;;13.87;12.93;;;14.30;99.90;;;;;;4990553;28;20503;-82
2023/05/17 16:09:10;;;;;;;12.23;11.73;;;14.20;99.90;;;;;;4993865;28;20465;-80
2023/05/17 16:11:39;;;;;;;13.20;12.40;;;14.30;99.90;;;;;;4997627;28;20485;-82
2023/05/17 16:14:08;;;;;;;13.33;12.73;;;14.20;99.90;;;;;;4997040;28;20464;-82
2023/05/17 16:16:38;;;;;;;13.70;13.20;;;14.20;99.90;;;;;;4992969;28;20488;-81
2023/05/17 16:19:07;;;;;;;12.50;12.10;;;14.30;99.90;;;;;;4992066;28;20457;-81
2023/05/17 16:21:37;;;;;;;12.87;12.27;;;14.20;99.90;;;;;;4975602;28;20531;-83
2023/05/17 16:24:12;;;;;;;12.43;11.93;;;14.30;99.90;;;;;;4992309;28;20486;-80
2023/05/17 16:26:43;;;;;;;13.40;12.70;;;14.30;99.90;;;;;;4986898;28;20477;-80
2023/05/17 16:29:17;;;;;;;14.93;13.93;;;14.30;99.90;;;;;;4999361;28;20963;-80
2023/05/17 16:31:55;;;;;;;12.27;11.77;;;14.30;99.90;;;;;;4995302;28;20461;-81
2023/05/17 16:34:28;;;;;;;12.27;11.77;;;14.30;99.90;;;;;;4997021;28;20859;-80
2023/05/17 16:37:49;;;;;;;12.60;12.10;;;14.30;99.90;;;;;;4993896;28;20488;-81
2023/05/17 16:41:01;;;;;;;12.37;11.77;;;14.30;99.90;;;;;;4985705;28;20564;-83
2023/05/17 16:47:39;;;;;;;12.53;11.57;;;14.30;99.90;;;;;;4978018;28;20487;-82
2023/05/17 16:51:13;;;;;;;12.23;11.70;;;14.30;99.90;;;;;;4940258;28;21039;-83
2023/05/17 17:00:35;;;;;;;12.80;11.70;;;14.40;99.90;;;;;;4917821;29;20459;-82
2023/05/17 17:07:19;;;;;;;12.23;11.63;;;14.30;99.90;;;;;;4943647;28;20494;-81
2023/05/17 17:10:30;;;;;;;13.30;12.20;;;14.40;99.90;;;;;;4920781;29;20591;-81
2023/05/17 17:13:45;;;;;;;12.37;11.80;;;14.30;99.90;;;;;;4917967;29;20464;-82
2023/05/17 17:20:58;;;;;;;12.30;11.60;;;14.30;99.90;;;;;;4940361;28;20482;-82
2023/05/17 17:24:27;;;;;;;11.73;11.07;;;14.20;99.90;;;;;;4863429;29;20481;-83
2023/05/17 17:38:58;;;;;;;11.50;11.00;;;13.90;99.90;;;;;;4921448;29;20518;-83
2023/05/17 17:42:26;;;;;;;10.93;10.53;;;13.90;99.90;;;;;;4921755;29;20629;-83
2023/05/17 18:03:56;;;;;;;12.03;11.33;;;13.90;99.90;;;;;;4957821;28;20520;-83
2023/05/17 18:07:46;;;;;;;;;;;;;;;;;;;;;
2023/05/17 18:21:31;;;;;;;10.73;9.93;;;13.70;99.90;;;;;;5000156;28;20449;-82
2023/05/17 18:25:06;;;;;;;10.80;10.17;;;13.70;99.90;;;;;;4931579;29;21000;-82
2023/05/17 18:49:50;;;;;;;9.93;9.33;;;13.20;99.90;;;;;;4947507;28;20506;-83
2023/05/17 18:56:46;;;;;;;;;;;;;;;;;;;;;
2023/05/17 19:00:01;;;;;;;9.33;8.73;;;13.00;99.90;;;;;;4936530;28;20842;-83
2023/05/17 19:05:48;;;;;;;9.20;8.70;;;12.80;99.90;;;;;;5000803;28;20519;-82
2023/05/17 19:08:58;;;;;;;9.27;8.77;;;12.80;99.90;;;;;;4984895;28;20484;-82